createdAt,value
2022-09-22T00:01:30.355Z,7.43
2022-09-22T00:04:01.018Z,7.70
2022-09-22T00:06:40.108Z,9.65
2022-09-22T00:09:13.395Z,8.95
2022-09-22T00:11:43.912Z,6.50
2022-09-22T00:14:20.630Z,7.30
2022-09-22T00:16:52.731Z,5.80
2022-09-22T00:19:23.603Z,6.88
2022-09-22T00:21:51.980Z,5.50
2022-09-22T00:24:22.759Z,6.55
2022-09-22T00:26:51.197Z,4.15
2022-09-22T00:29:19.119Z,5.43
2022-09-22T00:31:46.874Z,4.63
2022-09-22T00:34:20.641Z,3.63
2022-09-22T00:36:49.256Z,3.47
2022-09-22T00:39:18.472Z,5.38
2022-09-22T00:41:48.853Z,5.35
2022-09-22T00:44:44.440Z,4.00
2022-09-22T00:47:33.660Z,4.38
2022-09-22T00:50:14.667Z,4.75
2022-09-22T00:52:55.823Z,4.00
2022-09-22T00:55:42.859Z,3.85
2022-09-22T00:58:15.061Z,2.85
2022-09-22T01:00:43.212Z,3.63
2022-09-22T01:03:19.062Z,4.22
2022-09-22T01:05:49.987Z,3.58
2022-09-22T01:08:20.916Z,2.92
2022-09-22T01:10:49.796Z,3.53
2022-09-22T01:13:20.440Z,4.03
2022-09-22T01:15:54.528Z,3.90
2022-09-22T01:18:48.496Z,4.32
2022-09-22T01:21:21.993Z,3.42
2022-09-22T01:24:22.943Z,5.45
2022-09-22T01:26:53.465Z,5.55
2022-09-22T01:30:05.964Z,4.30
2022-09-22T01:33:01.486Z,3.65
2022-09-22T01:36:03.208Z,3.20
2022-09-22T01:38:42.449Z,4.05
2022-09-22T01:41:36.123Z,4.03
2022-09-22T01:44:09.867Z,3.33
2022-09-22T01:46:50.425Z,2.30
2022-09-22T01:49:20.306Z,3.40
2022-09-22T01:51:57.464Z,2.90
2022-09-22T01:54:58.191Z,4.20
2022-09-22T01:57:41.076Z,3.33
2022-09-22T02:00:10.745Z,4.63
2022-09-22T02:03:09.209Z,3.95
2022-09-22T02:05:44.166Z,5.32
2022-09-22T02:08:53.869Z,4.25
2022-09-22T02:11:22.156Z,5.03
2022-09-22T02:13:50.477Z,6.03
2022-09-22T02:16:22.236Z,5.78
2022-09-22T02:19:12.353Z,4.50
2022-09-22T02:21:44.988Z,3.15
2022-09-22T02:24:33.755Z,4.50
2022-09-22T02:27:15.350Z,3.67
2022-09-22T02:29:47.064Z,2.97
2022-09-22T02:32:17.062Z,3.67
2022-09-22T02:34:46.254Z,1.95
2022-09-22T02:37:26.382Z,2.72
2022-09-22T02:40:11.911Z,3.30
2022-09-22T02:42:49.749Z,4.10
2022-09-22T02:45:50.460Z,3.78
2022-09-22T02:48:37.197Z,2.05
2022-09-22T02:51:06.373Z,3.55
2022-09-22T02:53:35.549Z,3.17
2022-09-22T02:56:04.561Z,4.40
2022-09-22T02:58:32.258Z,3.45
2022-09-22T03:00:59.795Z,2.33
2022-09-22T03:03:27.442Z,2.60
2022-09-22T03:05:55.067Z,3.10
2022-09-22T03:08:22.657Z,2.95
2022-09-22T03:10:50.269Z,2.63
2022-09-22T03:13:17.932Z,2.90
2022-09-22T03:15:47.253Z,3.80
2022-09-22T03:18:15.490Z,6.00
2022-09-22T03:20:43.244Z,6.75
2022-09-22T03:23:10.833Z,6.22
2022-09-22T03:25:38.432Z,5.38
2022-09-22T03:28:06.108Z,6.10
2022-09-22T03:30:34.761Z,5.53
2022-09-22T03:33:02.581Z,3.95
2022-09-22T03:35:30.141Z,4.72
2022-09-22T03:37:57.731Z,3.00
2022-09-22T03:40:25.541Z,4.60
2022-09-22T03:42:53.384Z,5.05
2022-09-22T03:45:23.009Z,5.07
2022-09-22T03:47:50.684Z,5.38
2022-09-22T03:50:18.341Z,2.92
2022-09-22T03:52:46.131Z,5.35
2022-09-22T03:55:13.752Z,4.13
2022-09-22T03:57:43.492Z,2.92
2022-09-22T04:00:12.120Z,3.72
2022-09-22T04:02:40.186Z,4.38
2022-09-22T04:05:08.277Z,3.50
2022-09-22T04:07:35.991Z,3.55
2022-09-22T04:10:04.580Z,2.60
2022-09-22T04:12:32.389Z,3.92
2022-09-22T04:15:00.143Z,2.55
2022-09-22T04:17:27.938Z,3.28
2022-09-22T04:19:55.448Z,2.58
2022-09-22T04:22:23.149Z,3.00
2022-09-22T04:24:51.008Z,3.08
2022-09-22T04:27:20.361Z,4.15
2022-09-22T04:29:49.518Z,2.95
2022-09-22T04:32:18.273Z,3.28
2022-09-22T04:34:46.336Z,3.13
2022-09-22T04:37:13.878Z,3.13
2022-09-22T04:39:41.779Z,4.88
2022-09-22T04:42:09.545Z,2.70
2022-09-22T04:44:37.262Z,2.67
2022-09-22T04:47:05.679Z,3.35
2022-09-22T04:49:33.439Z,5.00
2022-09-22T04:52:01.307Z,3.83
2022-09-22T04:54:28.848Z,3.17
2022-09-22T04:56:56.506Z,4.00
2022-09-22T04:59:24.306Z,6.07
2022-09-22T05:01:52.040Z,4.18
2022-09-22T05:04:19.857Z,2.78
2022-09-22T05:06:47.615Z,3.25
2022-09-22T05:09:15.633Z,4.13
2022-09-22T05:11:43.438Z,3.88
2022-09-22T05:14:12.855Z,5.43
2022-09-22T05:16:42.176Z,3.97
2022-09-22T05:19:10.396Z,7.68
2022-09-22T05:21:38.319Z,9.40
2022-09-22T05:24:06.441Z,6.15
2022-09-22T05:26:34.427Z,4.60
2022-09-22T05:29:02.201Z,18.95
2022-09-22T05:31:29.964Z,30.35
2022-09-22T05:33:57.626Z,5.50
2022-09-22T05:36:25.181Z,4.15
2022-09-22T05:38:52.936Z,3.80
2022-09-22T05:41:20.731Z,3.03
2022-09-22T05:43:48.428Z,4.78
2022-09-22T05:46:16.051Z,3.03
2022-09-22T05:48:46.388Z,5.40
2022-09-22T05:51:14.046Z,3.40
2022-09-22T05:53:41.687Z,4.82
2022-09-22T05:56:09.296Z,5.40
2022-09-22T05:58:37.017Z,5.65
2022-09-22T06:01:04.701Z,4.32
2022-09-22T06:03:32.360Z,6.00
2022-09-22T06:05:59.960Z,4.80
2022-09-22T06:08:27.645Z,4.93
2022-09-22T06:10:55.308Z,5.28
2022-09-22T06:13:22.936Z,5.05
2022-09-22T06:15:50.572Z,4.93
2022-09-22T06:18:23.473Z,3.97
2022-09-22T06:20:52.867Z,3.08
2022-09-22T06:23:20.569Z,3.72
2022-09-22T06:25:48.214Z,4.82
2022-09-22T06:28:16.583Z,3.55
2022-09-22T06:30:44.373Z,5.57
2022-09-22T06:33:12.387Z,11.60
2022-09-22T06:35:43.242Z,5.57
2022-09-22T06:38:17.223Z,8.93
2022-09-22T06:40:45.267Z,7.63
2022-09-22T06:43:20.764Z,4.32
2022-09-22T06:45:53.205Z,5.35
2022-09-22T06:48:24.256Z,5.63
2022-09-22T06:50:54.199Z,4.65
2022-09-22T06:53:25.546Z,6.45
2022-09-22T06:55:55.324Z,5.47
2022-09-22T06:58:23.126Z,4.85
2022-09-22T07:00:51.094Z,9.77
2022-09-22T07:03:22.635Z,7.00
2022-09-22T07:05:55.827Z,8.68
2022-09-22T07:08:25.204Z,9.18
2022-09-22T07:11:01.945Z,7.00
2022-09-22T07:16:03.139Z,8.75
2022-09-22T07:18:31.401Z,10.38
2022-09-22T07:21:03.257Z,12.40
2022-09-22T07:23:30.954Z,9.90
2022-09-22T07:26:00.995Z,10.80
2022-09-22T07:28:29.375Z,6.20
2022-09-22T07:31:00.819Z,26.15
2022-09-22T07:33:28.510Z,16.85
2022-09-22T07:36:11.717Z,18.73
2022-09-22T07:38:40.411Z,14.07
2022-09-22T07:41:12.366Z,13.82
2022-09-22T07:43:41.566Z,13.52
2022-09-22T07:46:09.382Z,12.52
2022-09-22T07:48:37.881Z,9.05
2022-09-22T07:51:12.927Z,7.03
2022-09-22T07:53:45.167Z,9.13
2022-09-22T07:56:15.684Z,7.97
2022-09-22T07:58:53.865Z,7.65
2022-09-22T08:01:23.803Z,10.88
2022-09-22T08:03:52.502Z,11.32
2022-09-22T08:06:23.640Z,5.75
2022-09-22T08:08:55.419Z,7.38
2022-09-22T08:11:25.619Z,6.90
2022-09-22T08:13:55.245Z,5.68
2022-09-22T08:16:26.118Z,6.25
2022-09-22T08:18:56.697Z,5.72
2022-09-22T08:21:25.999Z,5.70
2022-09-22T08:23:54.514Z,5.55
2022-09-22T08:26:22.934Z,7.60
2022-09-22T08:28:54.905Z,2.80
2022-09-22T08:31:25.155Z,6.75
2022-09-22T08:33:54.285Z,15.77
2022-09-22T08:36:24.492Z,5.60
2022-09-22T08:38:52.399Z,11.18
2022-09-22T08:41:29.260Z,4.38
2022-09-22T08:44:13.293Z,10.07
2022-09-22T08:46:45.543Z,12.57
2022-09-22T08:49:47.259Z,8.43
2022-09-22T08:52:31.608Z,13.40
2022-09-22T08:55:01.307Z,10.80
2022-09-22T08:57:32.372Z,10.93
2022-09-22T09:00:11.562Z,12.02
2022-09-22T09:02:55.584Z,21.40
2022-09-22T09:05:46.165Z,25.25
2022-09-22T09:08:48.648Z,10.48
2022-09-22T09:11:48.943Z,9.30
2022-09-22T09:14:16.643Z,7.70
2022-09-22T09:17:01.716Z,10.00
2022-09-22T09:19:42.783Z,10.85
2022-09-22T09:22:25.668Z,9.07
2022-09-22T09:28:01.995Z,6.97
2022-09-22T09:30:52.745Z,6.40
2022-09-22T09:33:29.406Z,6.80
2022-09-22T09:35:58.820Z,13.57
2022-09-22T09:38:40.470Z,18.48
2022-09-22T09:41:18.248Z,19.27
2022-09-22T09:43:46.108Z,16.95
2022-09-22T09:46:19.623Z,11.50
2022-09-22T09:49:10.001Z,11.32
2022-09-22T09:51:40.545Z,7.70
2022-09-22T09:54:16.056Z,8.70
2022-09-22T09:57:09.825Z,5.97
2022-09-22T10:00:06.957Z,7.43
2022-09-22T10:02:56.037Z,10.45
2022-09-22T10:05:27.075Z,19.23
2022-09-22T10:07:58.950Z,13.80
2022-09-22T10:10:29.908Z,14.70
2022-09-22T10:13:00.767Z,10.75
2022-09-22T10:15:28.927Z,10.25
2022-09-22T10:17:56.800Z,18.58
2022-09-22T10:20:34.619Z,18.42
2022-09-22T10:23:37.993Z,17.48
2022-09-22T10:26:28.265Z,10.95
2022-09-22T10:29:14.054Z,18.80
2022-09-22T10:31:43.976Z,13.13
2022-09-22T10:34:37.845Z,16.98
2022-09-22T10:37:12.412Z,17.25
2022-09-22T10:39:52.039Z,13.05
2022-09-22T10:42:44.824Z,12.82
2022-09-22T10:45:15.676Z,9.40
2022-09-22T10:47:43.598Z,20.40
2022-09-22T10:50:50.049Z,14.43
2022-09-22T10:53:32.674Z,28.30
2022-09-22T10:56:19.031Z,30.08
2022-09-22T10:59:04.922Z,20.60
2022-09-22T11:01:38.584Z,12.40
2022-09-22T11:04:21.670Z,14.23
2022-09-22T11:07:46.960Z,18.55
2022-09-22T11:10:47.545Z,10.85
2022-09-22T11:13:24.679Z,12.52
2022-09-22T11:16:11.710Z,12.82
2022-09-22T11:18:59.569Z,14.35
2022-09-22T11:22:02.062Z,20.70
2022-09-22T11:24:53.416Z,23.70
2022-09-22T11:27:51.546Z,29.77
2022-09-22T11:30:23.259Z,8.65
2022-09-22T11:33:13.406Z,16.17
2022-09-22T11:35:45.102Z,7.20
2022-09-22T11:38:31.074Z,6.75
2022-09-22T11:41:16.350Z,5.25
2022-09-22T11:44:08.999Z,4.45
2022-09-22T11:47:14.544Z,8.40
2022-09-22T11:50:14.402Z,7.25
2022-09-22T11:53:14.972Z,10.32
2022-09-22T11:55:55.217Z,22.38
2022-09-22T11:58:26.872Z,20.83
2022-09-22T12:01:13.383Z,17.25
2022-09-22T12:03:51.907Z,14.63
2022-09-22T12:06:24.700Z,12.73
2022-09-22T12:09:01.254Z,11.80
2022-09-22T12:11:31.387Z,11.20
2022-09-22T12:14:00.860Z,8.52
2022-09-22T12:17:06.116Z,10.13
2022-09-22T12:19:39.988Z,9.07
2022-09-22T12:22:35.472Z,11.73
2022-09-22T12:25:03.557Z,7.93
2022-09-22T12:27:31.469Z,8.55
2022-09-22T12:30:02.498Z,7.55
2022-09-22T12:32:42.822Z,5.80
2022-09-22T12:35:31.418Z,8.35
2022-09-22T12:38:03.018Z,5.68
2022-09-22T12:40:37.353Z,6.35
2022-09-22T12:43:06.325Z,6.88
2022-09-22T12:45:38.210Z,6.75
2022-09-22T12:48:14.984Z,7.53
2022-09-22T12:50:45.196Z,7.15
2022-09-22T12:53:22.567Z,7.88
2022-09-22T12:55:52.578Z,9.48
2022-09-22T12:58:23.725Z,8.65
2022-09-22T13:00:53.672Z,9.93
2022-09-22T13:03:30.297Z,7.38
2022-09-22T13:06:15.943Z,6.57
2022-09-22T13:08:43.661Z,4.80
2022-09-22T13:11:11.648Z,6.95
2022-09-22T13:13:50.607Z,6.80
2022-09-22T13:16:18.171Z,6.43
2022-09-22T13:18:53.233Z,4.70
2022-09-22T13:21:30.176Z,4.03
2022-09-22T13:24:00.360Z,7.35
2022-09-22T13:26:29.918Z,4.68
2022-09-22T13:29:14.616Z,6.55
2022-09-22T13:31:57.945Z,9.45
2022-09-22T13:34:35.438Z,9.07
2022-09-22T13:37:12.370Z,5.95
2022-09-22T13:42:24.780Z,13.02
2022-09-22T13:45:00.957Z,13.90
2022-09-22T13:47:29.026Z,8.95
2022-09-22T13:50:02.847Z,10.80
2022-09-22T13:52:33.316Z,11.77
2022-09-22T13:55:18.479Z,11.30
2022-09-22T13:57:47.202Z,6.72
2022-09-22T14:00:27.031Z,20.00
2022-09-22T14:03:00.969Z,15.27
2022-09-22T14:05:32.202Z,13.43
2022-09-22T14:08:20.306Z,7.18
2022-09-22T14:10:49.880Z,12.13
2022-09-22T14:13:43.791Z,11.20
2022-09-22T14:16:20.089Z,19.48
2022-09-22T14:18:52.146Z,16.80
2022-09-22T14:21:21.579Z,15.88
2022-09-22T14:23:51.900Z,11.50
2022-09-22T14:26:27.254Z,17.63
2022-09-22T14:28:58.035Z,14.70
2022-09-22T14:31:29.391Z,11.75
2022-09-22T14:33:57.137Z,13.55
2022-09-22T14:36:26.028Z,12.57
2022-09-22T14:39:09.696Z,11.80
2022-09-22T14:41:38.250Z,8.93
2022-09-22T14:44:41.859Z,10.20
2022-09-22T14:47:18.495Z,11.32
2022-09-22T14:49:47.765Z,14.20
2022-09-22T14:52:28.794Z,22.50
2022-09-22T14:54:59.791Z,27.73
2022-09-22T14:57:27.956Z,23.48
2022-09-22T15:00:17.066Z,19.75
2022-09-22T15:02:51.844Z,17.48
2022-09-22T15:05:30.386Z,11.95
2022-09-22T15:07:58.958Z,14.15
2022-09-22T15:10:29.318Z,8.57
2022-09-22T15:13:28.233Z,8.52
2022-09-22T15:15:57.206Z,10.32
2022-09-22T15:18:29.846Z,8.77
2022-09-22T15:21:04.258Z,4.70
2022-09-22T15:23:41.486Z,6.97
2022-09-22T15:26:22.847Z,9.23
2022-09-22T15:28:54.834Z,8.65
2022-09-22T15:31:26.932Z,8.52
2022-09-22T15:33:56.408Z,5.25
2022-09-22T15:36:25.818Z,7.10
2022-09-22T15:39:06.629Z,6.22
2022-09-22T15:41:35.004Z,6.50
2022-09-22T15:44:03.588Z,7.72
2022-09-22T15:46:35.381Z,6.43
2022-09-22T15:49:18.089Z,7.15
2022-09-22T15:51:46.097Z,9.50
2022-09-22T15:54:15.802Z,6.07
2022-09-22T15:56:45.813Z,10.80
2022-09-22T15:59:18.442Z,6.85
2022-09-22T16:01:46.655Z,7.35
2022-09-22T16:04:14.969Z,5.78
2022-09-22T16:06:48.308Z,8.23
2022-09-22T16:09:17.520Z,10.60
2022-09-22T16:11:45.121Z,9.30
2022-09-22T16:14:13.110Z,10.70
2022-09-22T16:16:42.677Z,8.77
2022-09-22T16:19:10.593Z,8.93
2022-09-22T16:21:43.286Z,10.38
2022-09-22T16:24:11.804Z,7.13
2022-09-22T16:26:40.372Z,7.72
2022-09-22T16:29:08.470Z,11.27
2022-09-22T16:31:37.311Z,8.63
2022-09-22T16:34:06.729Z,7.60
2022-09-22T16:36:36.190Z,6.32
2022-09-22T16:39:04.569Z,7.03
2022-09-22T16:41:34.273Z,6.10
2022-09-22T16:44:02.829Z,6.97
2022-09-22T16:46:31.692Z,4.22
2022-09-22T16:49:04.466Z,7.65
2022-09-22T16:51:34.337Z,5.95
2022-09-22T16:54:02.646Z,4.68
2022-09-22T16:56:32.015Z,8.40
2022-09-22T16:59:03.375Z,9.13
2022-09-22T17:01:36.485Z,7.10
2022-09-22T17:04:09.123Z,8.20
2022-09-22T17:06:38.578Z,6.82
2022-09-22T17:09:07.029Z,6.68
2022-09-22T17:11:37.284Z,4.15
2022-09-22T17:14:12.692Z,5.60
2022-09-22T17:16:46.913Z,4.32
2022-09-22T17:19:22.260Z,8.23
2022-09-22T17:21:54.936Z,5.63
2022-09-22T17:24:24.059Z,4.70
2022-09-22T17:26:54.056Z,5.93
2022-09-22T17:29:25.223Z,5.53
2022-09-22T17:31:59.368Z,7.30
2022-09-22T17:34:28.683Z,5.57
2022-09-22T17:36:57.569Z,6.63
2022-09-22T17:39:27.642Z,4.47
2022-09-22T17:41:55.526Z,5.78
2022-09-22T17:44:24.186Z,5.00
2022-09-22T17:47:11.687Z,4.82
2022-09-22T17:49:58.314Z,4.35
2022-09-22T17:52:32.016Z,3.88
2022-09-22T17:55:08.526Z,5.90
2022-09-22T17:57:41.903Z,6.78
2022-09-22T18:00:15.443Z,9.02
2022-09-22T18:02:43.622Z,7.90
2022-09-22T18:05:14.149Z,8.70
2022-09-22T18:07:42.130Z,8.70
2022-09-22T18:10:16.002Z,6.00
2022-09-22T18:12:44.374Z,7.35
2022-09-22T18:15:13.522Z,3.90
2022-09-22T18:17:43.374Z,5.53
2022-09-22T18:20:18.184Z,4.47
2022-09-22T18:22:49.308Z,6.00
2022-09-22T18:25:19.369Z,3.53
2022-09-22T18:27:48.565Z,4.00
2022-09-22T18:30:18.647Z,5.43
2022-09-22T18:32:48.121Z,4.63
2022-09-22T18:35:15.806Z,5.90
2022-09-22T18:37:43.875Z,5.85
2022-09-22T18:40:12.669Z,5.72
2022-09-22T18:42:44.958Z,5.30
2022-09-22T18:45:14.457Z,5.10
2022-09-22T18:47:44.087Z,5.45
2022-09-22T18:50:12.996Z,6.20
2022-09-22T18:52:46.241Z,5.38
2022-09-22T18:55:18.730Z,5.30
2022-09-22T18:57:47.963Z,4.22
2022-09-22T19:00:16.725Z,4.18
2022-09-22T19:02:46.403Z,5.50
2022-09-22T19:05:14.312Z,5.43
2022-09-22T19:07:44.059Z,3.90
2022-09-22T19:10:20.617Z,7.07
2022-09-22T19:12:49.836Z,5.65
2022-09-22T19:15:19.186Z,6.10
2022-09-22T19:17:49.687Z,5.50
2022-09-22T19:20:22.545Z,7.60
2022-09-22T19:22:52.149Z,4.90
2022-09-22T19:25:21.531Z,6.57
2022-09-22T19:27:52.645Z,5.70
2022-09-22T19:30:24.076Z,4.25
2022-09-22T19:32:53.610Z,6.15
2022-09-22T19:35:21.628Z,4.97
2022-09-22T19:37:52.059Z,6.22
2022-09-22T19:40:22.362Z,5.72
2022-09-22T19:42:52.456Z,6.22
2022-09-22T19:45:21.657Z,5.88
2022-09-22T19:47:49.483Z,3.55
2022-09-22T19:50:18.320Z,6.55
2022-09-22T19:52:47.235Z,4.72
2022-09-22T19:55:18.932Z,6.25
2022-09-22T19:57:50.026Z,3.03
2022-09-22T20:00:18.213Z,3.08
2022-09-22T20:02:45.840Z,4.18
2022-09-22T20:05:20.881Z,5.07
2022-09-22T20:07:49.685Z,3.30
2022-09-22T20:10:19.479Z,6.75
2022-09-22T20:12:47.141Z,9.00
2022-09-22T20:15:15.950Z,5.10
2022-09-22T20:17:46.332Z,8.10
2022-09-22T20:20:16.081Z,6.47
2022-09-22T20:22:45.663Z,7.45
2022-09-22T20:25:21.953Z,8.77
2022-09-22T20:27:49.935Z,6.72
2022-09-22T20:30:18.259Z,6.57
2022-09-22T20:32:46.676Z,7.55
2022-09-22T20:35:17.452Z,4.80
2022-09-22T20:37:45.671Z,4.32
2022-09-22T20:40:20.567Z,5.50
2022-09-22T20:42:48.899Z,3.72
2022-09-22T20:45:18.273Z,4.40
2022-09-22T20:47:46.157Z,4.82
2022-09-22T20:50:14.139Z,5.78
2022-09-22T20:52:42.984Z,3.63
2022-09-22T20:55:11.191Z,6.43
2022-09-22T20:57:40.364Z,4.95
2022-09-22T21:00:09.024Z,4.65
2022-09-22T21:02:36.715Z,7.07
2022-09-22T21:05:04.651Z,7.13
2022-09-22T21:07:32.935Z,4.15
2022-09-22T21:10:19.045Z,6.07
2022-09-22T21:15:15.419Z,6.75
2022-09-22T21:17:44.452Z,11.75
2022-09-22T21:20:13.091Z,9.32
2022-09-22T21:22:41.119Z,7.03
2022-09-22T21:25:11.050Z,6.93
2022-09-22T21:27:38.728Z,6.68
2022-09-22T21:30:08.282Z,7.10
2022-09-22T21:32:36.007Z,5.35
2022-09-22T21:35:04.007Z,6.55
2022-09-22T21:37:31.949Z,5.07
2022-09-22T21:39:59.550Z,6.22
2022-09-22T21:42:27.818Z,5.03
2022-09-22T21:44:55.542Z,4.68
2022-09-22T21:47:23.375Z,4.57
2022-09-22T21:49:52.624Z,5.45
2022-09-22T21:52:20.504Z,3.75
2022-09-22T21:54:48.187Z,5.90
2022-09-22T21:57:15.913Z,6.15
2022-09-22T21:59:43.653Z,5.95
2022-09-22T22:02:11.630Z,7.15
2022-09-22T22:04:39.540Z,8.10
2022-09-22T22:07:07.516Z,5.43
2022-09-22T22:09:35.246Z,5.90
2022-09-22T22:12:02.919Z,8.52
2022-09-22T22:14:33.201Z,4.75
2022-09-22T22:17:02.474Z,7.25
2022-09-22T22:19:30.330Z,7.25
2022-09-22T22:21:57.914Z,6.35
2022-09-22T22:24:29.131Z,4.60
2022-09-22T22:27:03.587Z,6.03
2022-09-22T22:29:32.050Z,5.32
2022-09-22T22:32:00.114Z,8.90
2022-09-22T22:34:28.106Z,5.63
2022-09-22T22:36:58.283Z,6.15
2022-09-22T22:39:26.123Z,6.63
2022-09-22T22:41:56.683Z,6.65
2022-09-22T22:44:24.259Z,5.03
2022-09-22T22:46:51.795Z,7.75
2022-09-22T22:49:20.214Z,4.40
2022-09-22T22:51:49.428Z,7.18
2022-09-22T22:54:18.865Z,5.65
2022-09-22T22:56:50.760Z,7.07
2022-09-22T22:59:18.971Z,4.43
2022-09-22T23:01:46.880Z,2.42
2022-09-22T23:04:15.962Z,5.75
2022-09-22T23:06:48.610Z,4.53
2022-09-22T23:09:17.099Z,4.75
2022-09-22T23:11:46.489Z,4.45
2022-09-22T23:14:16.240Z,4.68
2022-09-22T23:16:46.242Z,5.50
2022-09-22T23:19:18.421Z,7.05
2022-09-22T23:21:47.139Z,7.40
2022-09-22T23:24:17.064Z,6.07
2022-09-22T23:26:45.517Z,5.97
2022-09-22T23:29:13.327Z,4.15
2022-09-22T23:31:41.296Z,4.40
2022-09-22T23:34:09.139Z,4.18
2022-09-22T23:36:37.252Z,5.22
2022-09-22T23:39:05.176Z,4.57
2022-09-22T23:41:34.879Z,3.45
2022-09-22T23:44:03.767Z,3.88
2022-09-22T23:46:31.949Z,3.05
2022-09-22T23:49:02.614Z,3.10
2022-09-22T23:51:31.081Z,4.78
2022-09-22T23:53:59.002Z,4.95
2022-09-22T23:56:26.678Z,4.40
2022-09-22T23:58:54.368Z,7.70
